sensor_id;sensor_type;location;lat;lon;timestamp;temperature;humidity
7016;DHT22;3548;48.402;9.990;2022-09-03T00:01:26;16.40;98.00
7016;DHT22;3548;48.402;9.990;2022-09-03T00:04:01;16.40;98.00
7016;DHT22;3548;48.402;9.990;2022-09-03T00:06:38;16.40;98.00
7016;DHT22;3548;48.402;9.990;2022-09-03T00:09:11;16.40;98.20
7016;DHT22;3548;48.402;9.990;2022-09-03T00:12:13;16.30;98.20
7016;DHT22;3548;48.402;9.990;2022-09-03T00:14:46;16.30;98.20
7016;DHT22;3548;48.402;9.990;2022-09-03T00:17:15;16.30;98.20
7016;DHT22;3548;48.402;9.990;2022-09-03T00:22:32;16.20;98.40
7016;DHT22;3548;48.402;9.990;2022-09-03T00:25:03;16.20;98.60
7016;DHT22;3548;48.402;9.990;2022-09-03T00:27:32;16.20;98.60
7016;DHT22;3548;48.402;9.990;2022-09-03T00:30:04;16.20;98.80
7016;DHT22;3548;48.402;9.990;2022-09-03T00:32:53;16.10;98.90
7016;DHT22;3548;48.402;9.990;2022-09-03T00:35:25;16.10;99.10
7016;DHT22;3548;48.402;9.990;2022-09-03T00:37:53;16.10;99.30
7016;DHT22;3548;48.402;9.990;2022-09-03T00:43:10;16.00;99.40
7016;DHT22;3548;48.402;9.990;2022-09-03T00:45:39;16.00;99.60
7016;DHT22;3548;48.402;9.990;2022-09-03T00:48:30;16.00;99.70
7016;DHT22;3548;48.402;9.990;2022-09-03T00:54:14;16.00;99.90
7016;DHT22;3548;48.402;9.990;2022-09-03T00:57:08;15.90;99.90
7016;DHT22;3548;48.402;9.990;2022-09-03T00:59:50;15.90;99.90
7016;DHT22;3548;48.402;9.990;2022-09-03T01:10:55;15.70;99.90
7016;DHT22;3548;48.402;9.990;2022-09-03T01:13:35;15.70;99.90
7016;DHT22;3548;48.402;9.990;2022-09-03T01:18:50;15.70;99.90
7016;DHT22;3548;48.402;9.990;2022-09-03T01:21:32;15.70;99.90
7016;DHT22;3548;48.402;9.990;2022-09-03T01:24:13;15.60;99.90
7016;DHT22;3548;48.402;9.990;2022-09-03T01:29:27;15.50;99.90
7016;DHT22;3548;48.402;9.990;2022-09-03T01:43:00;15.30;99.90
7016;DHT22;3548;48.402;9.990;2022-09-03T01:45:50;15.30;99.90
7016;DHT22;3548;48.402;9.990;2022-09-03T01:48:48;15.30;99.90
7016;DHT22;3548;48.402;9.990;2022-09-03T01:51:23;15.30;99.90
7016;DHT22;3548;48.402;9.990;2022-09-03T01:54:15;15.30;99.90
7016;DHT22;3548;48.402;9.990;2022-09-03T01:59:58;15.30;99.90
7016;DHT22;3548;48.402;9.990;2022-09-03T02:02:27;15.40;99.90
7016;DHT22;3548;48.402;9.990;2022-09-03T02:07:41;15.40;99.90
7016;DHT22;3548;48.402;9.990;2022-09-03T02:10:11;15.30;99.90
7016;DHT22;3548;48.402;9.990;2022-09-03T02:12:38;15.30;99.90
7016;DHT22;3548;48.402;9.990;2022-09-03T02:15:13;15.30;99.90
7016;DHT22;3548;48.402;9.990;2022-09-03T02:17:41;15.30;99.90
7016;DHT22;3548;48.402;9.990;2022-09-03T02:20:11;15.30;99.90
7016;DHT22;3548;48.402;9.990;2022-09-03T02:22:41;15.30;99.90
7016;DHT22;3548;48.402;9.990;2022-09-03T02:25:07;15.30;99.90
7016;DHT22;3548;48.402;9.990;2022-09-03T02:27:36;15.30;99.90
7016;DHT22;3548;48.402;9.990;2022-09-03T02:30:01;15.20;99.90
7016;DHT22;3548;48.402;9.990;2022-09-03T02:32:27;15.20;99.90
7016;DHT22;3548;48.402;9.990;2022-09-03T02:34:53;15.20;99.90
7016;DHT22;3548;48.402;9.990;2022-09-03T02:37:18;15.20;99.90
7016;DHT22;3548;48.402;9.990;2022-09-03T02:39:44;15.20;99.90
7016;DHT22;3548;48.402;9.990;2022-09-03T02:42:11;15.10;99.90
7016;DHT22;3548;48.402;9.990;2022-09-03T02:44:56;15.10;99.90
7016;DHT22;3548;48.402;9.990;2022-09-03T02:47:29;15.00;99.90
7016;DHT22;3548;48.402;9.990;2022-09-03T02:49:55;14.90;99.90
7016;DHT22;3548;48.402;9.990;2022-09-03T02:52:20;14.90;99.90
7016;DHT22;3548;48.402;9.990;2022-09-03T02:54:46;14.80;99.90
7016;DHT22;3548;48.402;9.990;2022-09-03T02:57:14;14.80;99.90
7016;DHT22;3548;48.402;9.990;2022-09-03T02:59:40;14.70;99.90
7016;DHT22;3548;48.402;9.990;2022-09-03T03:02:09;14.70;99.90
7016;DHT22;3548;48.402;9.990;2022-09-03T03:04:34;14.70;99.90
7016;DHT22;3548;48.402;9.990;2022-09-03T03:07:00;14.60;99.90
7016;DHT22;3548;48.402;9.990;2022-09-03T03:09:26;14.60;99.90
7016;DHT22;3548;48.402;9.990;2022-09-03T03:11:51;14.60;99.90
7016;DHT22;3548;48.402;9.990;2022-09-03T03:14:19;14.60;99.90
7016;DHT22;3548;48.402;9.990;2022-09-03T03:16:44;14.60;99.90
7016;DHT22;3548;48.402;9.990;2022-09-03T03:19:10;14.50;99.90
7016;DHT22;3548;48.402;9.990;2022-09-03T03:21:36;14.50;99.90
7016;DHT22;3548;48.402;9.990;2022-09-03T03:24:02;14.50;99.90
7016;DHT22;3548;48.402;9.990;2022-09-03T03:26:28;14.40;99.90
7016;DHT22;3548;48.402;9.990;2022-09-03T03:28:59;14.40;99.90
7016;DHT22;3548;48.402;9.990;2022-09-03T03:31:25;14.40;99.90
7016;DHT22;3548;48.402;9.990;2022-09-03T03:33:57;14.40;99.90
7016;DHT22;3548;48.402;9.990;2022-09-03T03:36:25;14.40;99.90
7016;DHT22;3548;48.402;9.990;2022-09-03T03:38:55;14.40;99.90
7016;DHT22;3548;48.402;9.990;2022-09-03T03:41:23;14.40;99.90
7016;DHT22;3548;48.402;9.990;2022-09-03T03:43:54;14.40;99.90
7016;DHT22;3548;48.402;9.990;2022-09-03T03:46:21;14.50;99.90
7016;DHT22;3548;48.402;9.990;2022-09-03T03:48:47;14.40;99.90
7016;DHT22;3548;48.402;9.990;2022-09-03T03:51:13;14.40;99.90
7016;DHT22;3548;48.402;9.990;2022-09-03T03:53:39;14.40;99.90
7016;DHT22;3548;48.402;9.990;2022-09-03T03:56:07;14.40;99.90
7016;DHT22;3548;48.402;9.990;2022-09-03T03:58:34;14.50;99.90
7016;DHT22;3548;48.402;9.990;2022-09-03T04:01:08;14.40;99.90
7016;DHT22;3548;48.402;9.990;2022-09-03T04:03:35;14.40;99.90
7016;DHT22;3548;48.402;9.990;2022-09-03T04:06:01;14.50;99.90
7016;DHT22;3548;48.402;9.990;2022-09-03T04:08:27;14.50;99.90
7016;DHT22;3548;48.402;9.990;2022-09-03T04:10:53;14.40;99.90
7016;DHT22;3548;48.402;9.990;2022-09-03T04:13:19;14.40;99.90
7016;DHT22;3548;48.402;9.990;2022-09-03T04:15:45;14.30;99.90
7016;DHT22;3548;48.402;9.990;2022-09-03T04:18:10;14.30;99.90
7016;DHT22;3548;48.402;9.990;2022-09-03T04:20:36;14.30;99.90
7016;DHT22;3548;48.402;9.990;2022-09-03T04:23:04;14.30;99.90
7016;DHT22;3548;48.402;9.990;2022-09-03T04:25:31;14.40;99.90
7016;DHT22;3548;48.402;9.990;2022-09-03T04:27:56;14.30;99.90
7016;DHT22;3548;48.402;9.990;2022-09-03T04:30:22;14.30;99.90
7016;DHT22;3548;48.402;9.990;2022-09-03T04:32:50;14.40;99.90
7016;DHT22;3548;48.402;9.990;2022-09-03T04:35:24;14.40;99.90
7016;DHT22;3548;48.402;9.990;2022-09-03T04:37:50;14.40;99.90
7016;DHT22;3548;48.402;9.990;2022-09-03T04:40:16;14.40;99.90
7016;DHT22;3548;48.402;9.990;2022-09-03T04:42:42;14.40;99.90
7016;DHT22;3548;48.402;9.990;2022-09-03T04:45:08;14.40;99.90
7016;DHT22;3548;48.402;9.990;2022-09-03T04:47:34;14.40;99.90
7016;DHT22;3548;48.402;9.990;2022-09-03T04:50:02;14.40;99.90
7016;DHT22;3548;48.402;9.990;2022-09-03T04:52:28;14.40;99.90
7016;DHT22;3548;48.402;9.990;2022-09-03T04:54:56;14.40;99.90
7016;DHT22;3548;48.402;9.990;2022-09-03T04:57:22;14.40;99.90
7016;DHT22;3548;48.402;9.990;2022-09-03T04:59:47;14.50;99.90
7016;DHT22;3548;48.402;9.990;2022-09-03T05:02:13;14.40;99.90
7016;DHT22;3548;48.402;9.990;2022-09-03T05:04:40;14.40;99.90
7016;DHT22;3548;48.402;9.990;2022-09-03T05:07:06;14.40;99.90
7016;DHT22;3548;48.402;9.990;2022-09-03T05:09:31;14.30;99.90
7016;DHT22;3548;48.402;9.990;2022-09-03T05:11:57;14.40;99.90
7016;DHT22;3548;48.402;9.990;2022-09-03T05:14:22;14.30;99.90
7016;DHT22;3548;48.402;9.990;2022-09-03T05:16:48;14.30;99.90
7016;DHT22;3548;48.402;9.990;2022-09-03T05:19:14;14.20;99.90
7016;DHT22;3548;48.402;9.990;2022-09-03T05:21:40;14.20;99.90
7016;DHT22;3548;48.402;9.990;2022-09-03T05:24:07;14.10;99.90
7016;DHT22;3548;48.402;9.990;2022-09-03T05:26:37;14.10;99.90
7016;DHT22;3548;48.402;9.990;2022-09-03T05:29:05;14.10;99.90
7016;DHT22;3548;48.402;9.990;2022-09-03T05:31:36;14.10;99.90
7016;DHT22;3548;48.402;9.990;2022-09-03T05:34:04;14.10;99.90
7016;DHT22;3548;48.402;9.990;2022-09-03T05:36:33;14.10;99.90
7016;DHT22;3548;48.402;9.990;2022-09-03T05:39:03;14.10;99.90
7016;DHT22;3548;48.402;9.990;2022-09-03T05:41:29;14.20;99.90
7016;DHT22;3548;48.402;9.990;2022-09-03T05:43:55;14.20;99.90
7016;DHT22;3548;48.402;9.990;2022-09-03T05:46:28;14.30;99.90
7016;DHT22;3548;48.402;9.990;2022-09-03T05:49:00;14.40;99.90
7016;DHT22;3548;48.402;9.990;2022-09-03T05:51:27;14.50;99.90
7016;DHT22;3548;48.402;9.990;2022-09-03T05:53:53;14.50;99.90
7016;DHT22;3548;48.402;9.990;2022-09-03T05:56:21;14.60;99.90
7016;DHT22;3548;48.402;9.990;2022-09-03T05:58:50;14.70;99.90
7016;DHT22;3548;48.402;9.990;2022-09-03T06:01:22;14.80;99.90
7016;DHT22;3548;48.402;9.990;2022-09-03T06:04:02;15.20;99.90
7016;DHT22;3548;48.402;9.990;2022-09-03T06:06:30;15.00;99.90
7016;DHT22;3548;48.402;9.990;2022-09-03T06:09:28;15.10;99.90
7016;DHT22;3548;48.402;9.990;2022-09-03T06:11:54;15.20;99.90
7016;DHT22;3548;48.402;9.990;2022-09-03T06:14:19;15.30;99.90
7016;DHT22;3548;48.402;9.990;2022-09-03T06:16:47;15.40;99.90
7016;DHT22;3548;48.402;9.990;2022-09-03T06:19:14;15.50;99.90
7016;DHT22;3548;48.402;9.990;2022-09-03T06:21:43;15.60;99.90
7016;DHT22;3548;48.402;9.990;2022-09-03T06:24:15;15.70;99.90
7016;DHT22;3548;48.402;9.990;2022-09-03T06:26:41;15.70;99.90
7016;DHT22;3548;48.402;9.990;2022-09-03T06:29:07;15.80;99.90
7016;DHT22;3548;48.402;9.990;2022-09-03T06:31:33;15.90;99.90
7016;DHT22;3548;48.402;9.990;2022-09-03T06:34:00;16.00;99.90
7016;DHT22;3548;48.402;9.990;2022-09-03T06:36:26;16.10;99.90
7016;DHT22;3548;48.402;9.990;2022-09-03T06:38:54;16.20;99.90
7016;DHT22;3548;48.402;9.990;2022-09-03T06:41:23;16.30;99.90
7016;DHT22;3548;48.402;9.990;2022-09-03T06:43:53;16.40;99.90
7016;DHT22;3548;48.402;9.990;2022-09-03T06:46:22;16.50;99.90
7016;DHT22;3548;48.402;9.990;2022-09-03T06:48:48;16.60;99.90
7016;DHT22;3548;48.402;9.990;2022-09-03T06:51:20;16.70;99.90
7016;DHT22;3548;48.402;9.990;2022-09-03T06:53:47;16.80;99.90
7016;DHT22;3548;48.402;9.990;2022-09-03T06:56:19;16.80;99.90
7016;DHT22;3548;48.402;9.990;2022-09-03T06:58:50;16.80;99.90
7016;DHT22;3548;48.402;9.990;2022-09-03T07:01:24;16.90;99.90
7016;DHT22;3548;48.402;9.990;2022-09-03T07:03:55;17.00;99.90
7016;DHT22;3548;48.402;9.990;2022-09-03T07:06:23;17.10;99.90
7016;DHT22;3548;48.402;9.990;2022-09-03T07:08:49;17.30;99.90
7016;DHT22;3548;48.402;9.990;2022-09-03T07:11:17;17.30;99.90
7016;DHT22;3548;48.402;9.990;2022-09-03T07:13:46;17.50;99.90
7016;DHT22;3548;48.402;9.990;2022-09-03T07:16:31;17.70;99.90
7016;DHT22;3548;48.402;9.990;2022-09-03T07:18:57;17.80;99.90
7016;DHT22;3548;48.402;9.990;2022-09-03T07:21:24;17.80;99.90
7016;DHT22;3548;48.402;9.990;2022-09-03T07:23:52;17.90;99.90
7016;DHT22;3548;48.402;9.990;2022-09-03T07:26:29;18.00;99.90
7016;DHT22;3548;48.402;9.990;2022-09-03T07:28:55;18.10;99.90
7016;DHT22;3548;48.402;9.990;2022-09-03T07:31:23;18.10;99.90
7016;DHT22;3548;48.402;9.990;2022-09-03T07:34:10;18.20;99.90
7016;DHT22;3548;48.402;9.990;2022-09-03T07:36:37;18.20;99.90
7016;DHT22;3548;48.402;9.990;2022-09-03T07:39:04;18.30;99.90
7016;DHT22;3548;48.402;9.990;2022-09-03T07:41:30;18.40;99.90
7016;DHT22;3548;48.402;9.990;2022-09-03T07:43:59;18.50;99.90
7016;DHT22;3548;48.402;9.990;2022-09-03T07:46:31;18.60;99.90
7016;DHT22;3548;48.402;9.990;2022-09-03T07:48:59;18.60;99.90
7016;DHT22;3548;48.402;9.990;2022-09-03T07:51:29;18.50;99.90
7016;DHT22;3548;48.402;9.990;2022-09-03T07:53:57;18.50;99.90
7016;DHT22;3548;48.402;9.990;2022-09-03T07:56:24;18.50;99.90
7016;DHT22;3548;48.402;9.990;2022-09-03T07:58:51;18.50;99.90
7016;DHT22;3548;48.402;9.990;2022-09-03T08:01:19;18.60;99.90
7016;DHT22;3548;48.402;9.990;2022-09-03T08:03:47;18.70;99.90
7016;DHT22;3548;48.402;9.990;2022-09-03T08:06:13;18.90;99.90
7016;DHT22;3548;48.402;9.990;2022-09-03T08:08:39;19.00;99.90
7016;DHT22;3548;48.402;9.990;2022-09-03T08:11:07;19.00;99.90
7016;DHT22;3548;48.402;9.990;2022-09-03T08:13:38;19.10;99.90
7016;DHT22;3548;48.402;9.990;2022-09-03T08:16:05;19.10;99.90
7016;DHT22;3548;48.402;9.990;2022-09-03T08:18:33;19.20;99.90
7016;DHT22;3548;48.402;9.990;2022-09-03T08:21:03;19.20;99.90
7016;DHT22;3548;48.402;9.990;2022-09-03T08:23:29;19.30;99.90
7016;DHT22;3548;48.402;9.990;2022-09-03T08:25:59;19.40;99.90
7016;DHT22;3548;48.402;9.990;2022-09-03T08:28:26;19.50;99.90
7016;DHT22;3548;48.402;9.990;2022-09-03T08:30:52;19.50;99.90
7016;DHT22;3548;48.402;9.990;2022-09-03T08:33:18;19.60;99.90
7016;DHT22;3548;48.402;9.990;2022-09-03T08:36:15;19.60;99.90
7016;DHT22;3548;48.402;9.990;2022-09-03T08:38:42;19.60;99.90
7016;DHT22;3548;48.402;9.990;2022-09-03T08:41:20;19.50;99.90
7016;DHT22;3548;48.402;9.990;2022-09-03T08:46:50;19.50;99.90
7016;DHT22;3548;48.402;9.990;2022-09-03T08:49:38;19.60;99.90
7016;DHT22;3548;48.402;9.990;2022-09-03T08:54:46;19.70;99.90
7016;DHT22;3548;48.402;9.990;2022-09-03T08:57:14;19.80;99.90
7016;DHT22;3548;48.402;9.990;2022-09-03T08:59:40;19.90;99.90
7016;DHT22;3548;48.402;9.990;2022-09-03T09:02:39;20.00;99.90
7016;DHT22;3548;48.402;9.990;2022-09-03T09:05:12;20.00;99.90
7016;DHT22;3548;48.402;9.990;2022-09-03T09:08:02;20.00;99.90
7016;DHT22;3548;48.402;9.990;2022-09-03T09:10:44;20.10;99.90
7016;DHT22;3548;48.402;9.990;2022-09-03T09:13:16;20.10;99.90
7016;DHT22;3548;48.402;9.990;2022-09-03T09:15:48;20.20;99.90
7016;DHT22;3548;48.402;9.990;2022-09-03T09:21:10;20.30;99.90
7016;DHT22;3548;48.402;9.990;2022-09-03T09:23:46;20.30;99.90
7016;DHT22;3548;48.402;9.990;2022-09-03T09:26:17;20.20;99.90
7016;DHT22;3548;48.402;9.990;2022-09-03T09:28:45;20.20;99.90
7016;DHT22;3548;48.402;9.990;2022-09-03T09:31:14;20.20;99.90
7016;DHT22;3548;48.402;9.990;2022-09-03T09:33:43;20.20;99.90
7016;DHT22;3548;48.402;9.990;2022-09-03T09:36:11;20.20;99.90
7016;DHT22;3548;48.402;9.990;2022-09-03T09:38:40;20.20;99.90
7016;DHT22;3548;48.402;9.990;2022-09-03T09:41:15;20.20;99.90
7016;DHT22;3548;48.402;9.990;2022-09-03T09:43:42;20.40;99.90
7016;DHT22;3548;48.402;9.990;2022-09-03T09:46:15;20.60;99.90
7016;DHT22;3548;48.402;9.990;2022-09-03T09:48:57;20.90;99.90
7016;DHT22;3548;48.402;9.990;2022-09-03T09:51:25;21.10;99.90
7016;DHT22;3548;48.402;9.990;2022-09-03T09:54:03;21.40;99.90
7016;DHT22;3548;48.402;9.990;2022-09-03T09:56:29;21.70;99.90
7016;DHT22;3548;48.402;9.990;2022-09-03T09:59:06;22.00;99.90
7016;DHT22;3548;48.402;9.990;2022-09-03T10:01:32;22.30;99.90
7016;DHT22;3548;48.402;9.990;2022-09-03T10:04:07;22.40;99.90
7016;DHT22;3548;48.402;9.990;2022-09-03T10:06:33;22.50;99.90
7016;DHT22;3548;48.402;9.990;2022-09-03T10:09:20;22.50;99.90
7016;DHT22;3548;48.402;9.990;2022-09-03T10:14:46;22.30;99.90
7016;DHT22;3548;48.402;9.990;2022-09-03T10:17:41;22.30;99.90
7016;DHT22;3548;48.402;9.990;2022-09-03T10:28:25;22.40;99.90
7016;DHT22;3548;48.402;9.990;2022-09-03T10:39:39;23.00;99.90
7016;DHT22;3548;48.402;9.990;2022-09-03T10:48:11;22.90;99.90
7016;DHT22;3548;48.402;9.990;2022-09-03T10:50:52;23.10;99.90
7016;DHT22;3548;48.402;9.990;2022-09-03T10:56:35;23.60;99.90
7016;DHT22;3548;48.402;9.990;2022-09-03T11:02:37;24.10;99.90
7016;DHT22;3548;48.402;9.990;2022-09-03T11:05:10;24.10;99.90
7016;DHT22;3548;48.402;9.990;2022-09-03T11:07:45;24.10;99.90
7016;DHT22;3548;48.402;9.990;2022-09-03T11:10:22;23.90;99.80
7016;DHT22;3548;48.402;9.990;2022-09-03T11:15:33;24.10;98.90
7016;DHT22;3548;48.402;9.990;2022-09-03T11:18:15;24.30;98.70
7016;DHT22;3548;48.402;9.990;2022-09-03T11:20:43;24.50;98.60
7016;DHT22;3548;48.402;9.990;2022-09-03T11:23:10;24.70;97.80
7016;DHT22;3548;48.402;9.990;2022-09-03T11:25:53;24.80;97.80
7016;DHT22;3548;48.402;9.990;2022-09-03T11:29:31;25.00;96.50
7016;DHT22;3548;48.402;9.990;2022-09-03T11:34:12;25.00;96.10
7016;DHT22;3548;48.402;9.990;2022-09-03T11:36:41;25.00;96.40
7016;DHT22;3548;48.402;9.990;2022-09-03T11:39:34;25.20;96.30
7016;DHT22;3548;48.402;9.990;2022-09-03T11:42:03;25.20;95.90
7016;DHT22;3548;48.402;9.990;2022-09-03T11:44:41;25.30;95.60
7016;DHT22;3548;48.402;9.990;2022-09-03T11:47:16;25.30;94.70
7016;DHT22;3548;48.402;9.990;2022-09-03T11:49:49;25.10;95.20
7016;DHT22;3548;48.402;9.990;2022-09-03T11:52:30;24.90;95.40
7016;DHT22;3548;48.402;9.990;2022-09-03T11:55:05;24.90;95.30
7016;DHT22;3548;48.402;9.990;2022-09-03T11:57:31;24.80;95.50
7016;DHT22;3548;48.402;9.990;2022-09-03T12:00:17;24.60;95.90
7016;DHT22;3548;48.402;9.990;2022-09-03T12:02:56;24.40;96.20
7016;DHT22;3548;48.402;9.990;2022-09-03T12:08:05;24.10;96.80
7016;DHT22;3548;48.402;9.990;2022-09-03T12:18:55;22.80;99.80
7016;DHT22;3548;48.402;9.990;2022-09-03T12:21:26;22.10;99.90
7016;DHT22;3548;48.402;9.990;2022-09-03T12:23:53;20.30;99.90
7016;DHT22;3548;48.402;9.990;2022-09-03T12:26:21;19.20;99.90
7016;DHT22;3548;48.402;9.990;2022-09-03T12:29:24;18.50;99.90
7016;DHT22;3548;48.402;9.990;2022-09-03T12:31:50;18.10;99.90
7016;DHT22;3548;48.402;9.990;2022-09-03T12:34:18;17.90;99.90
7016;DHT22;3548;48.402;9.990;2022-09-03T12:36:49;17.80;99.90
7016;DHT22;3548;48.402;9.990;2022-09-03T12:39:27;17.90;99.90
7016;DHT22;3548;48.402;9.990;2022-09-03T12:42:03;18.10;99.90
7016;DHT22;3548;48.402;9.990;2022-09-03T12:47:21;18.30;99.90
7016;DHT22;3548;48.402;9.990;2022-09-03T12:49:51;18.50;99.90
7016;DHT22;3548;48.402;9.990;2022-09-03T12:55:17;18.80;99.90
7016;DHT22;3548;48.402;9.990;2022-09-03T12:58:02;18.90;99.90
7016;DHT22;3548;48.402;9.990;2022-09-03T13:00:32;19.10;99.90
7016;DHT22;3548;48.402;9.990;2022-09-03T13:03:10;19.30;99.90
7016;DHT22;3548;48.402;9.990;2022-09-03T13:06:07;19.40;99.90
7016;DHT22;3548;48.402;9.990;2022-09-03T13:08:43;19.80;99.90
7016;DHT22;3548;48.402;9.990;2022-09-03T13:11:10;20.10;99.90
7016;DHT22;3548;48.402;9.990;2022-09-03T13:13:59;20.20;99.90
7016;DHT22;3548;48.402;9.990;2022-09-03T13:16:29;20.30;99.90
7016;DHT22;3548;48.402;9.990;2022-09-03T13:19:34;20.60;99.90
7016;DHT22;3548;48.402;9.990;2022-09-03T13:24:57;21.20;99.90
7016;DHT22;3548;48.402;9.990;2022-09-03T13:27:44;21.20;99.90
7016;DHT22;3548;48.402;9.990;2022-09-03T13:30:16;21.20;99.90
7016;DHT22;3548;48.402;9.990;2022-09-03T13:33:19;21.30;99.90
7016;DHT22;3548;48.402;9.990;2022-09-03T13:41:17;21.00;99.90
7016;DHT22;3548;48.402;9.990;2022-09-03T13:44:03;20.80;99.90
7016;DHT22;3548;48.402;9.990;2022-09-03T13:46:52;20.50;99.90
7016;DHT22;3548;48.402;9.990;2022-09-03T13:55:01;19.90;99.90
7016;DHT22;3548;48.402;9.990;2022-09-03T13:57:39;19.70;99.90
7016;DHT22;3548;48.402;9.990;2022-09-03T14:00:12;19.60;99.90
7016;DHT22;3548;48.402;9.990;2022-09-03T14:02:57;19.50;99.90
7016;DHT22;3548;48.402;9.990;2022-09-03T14:11:22;19.30;99.90
7016;DHT22;3548;48.402;9.990;2022-09-03T14:22:04;19.60;99.90
7016;DHT22;3548;48.402;9.990;2022-09-03T14:24:59;19.80;99.90
7016;DHT22;3548;48.402;9.990;2022-09-03T14:27:31;20.20;99.90
7016;DHT22;3548;48.402;9.990;2022-09-03T14:30:03;20.50;99.90
7016;DHT22;3548;48.402;9.990;2022-09-03T14:49:07;20.80;99.90
7016;DHT22;3548;48.402;9.990;2022-09-03T14:54:33;20.90;99.90
7016;DHT22;3548;48.402;9.990;2022-09-03T14:57:19;21.00;99.90
7016;DHT22;3548;48.402;9.990;2022-09-03T15:04:54;21.30;99.90
7016;DHT22;3548;48.402;9.990;2022-09-03T15:12:50;21.50;99.90
7016;DHT22;3548;48.402;9.990;2022-09-03T15:15:23;21.60;99.90
7016;DHT22;3548;48.402;9.990;2022-09-03T15:18:03;21.70;99.90
7016;DHT22;3548;48.402;9.990;2022-09-03T15:20:53;21.80;99.90
7016;DHT22;3548;48.402;9.990;2022-09-03T15:37:22;22.00;99.90
7016;DHT22;3548;48.402;9.990;2022-09-03T15:39:59;22.10;99.90
7016;DHT22;3548;48.402;9.990;2022-09-03T15:42:27;22.10;99.90
7016;DHT22;3548;48.402;9.990;2022-09-03T15:44:55;22.10;99.90
7016;DHT22;3548;48.402;9.990;2022-09-03T15:47:46;22.10;99.90
7016;DHT22;3548;48.402;9.990;2022-09-03T15:50:47;22.00;99.90
7016;DHT22;3548;48.402;9.990;2022-09-03T15:56:14;21.80;99.90
7016;DHT22;3548;48.402;9.990;2022-09-03T16:01:56;21.80;99.90
7016;DHT22;3548;48.402;9.990;2022-09-03T16:10:12;21.60;99.90
7016;DHT22;3548;48.402;9.990;2022-09-03T16:13:00;21.50;99.90
7016;DHT22;3548;48.402;9.990;2022-09-03T16:18:27;21.20;99.90
7016;DHT22;3548;48.402;9.990;2022-09-03T16:21:28;21.10;99.90
7016;DHT22;3548;48.402;9.990;2022-09-03T16:24:02;21.00;99.90
7016;DHT22;3548;48.402;9.990;2022-09-03T16:26:47;20.90;99.90
7016;DHT22;3548;48.402;9.990;2022-09-03T16:29:15;21.00;99.90
7016;DHT22;3548;48.402;9.990;2022-09-03T16:34:26;21.10;99.90
7016;DHT22;3548;48.402;9.990;2022-09-03T16:39:56;21.10;99.90
7016;DHT22;3548;48.402;9.990;2022-09-03T16:51:12;20.60;99.90
7016;DHT22;3548;48.402;9.990;2022-09-03T16:59:53;21.10;99.90
7016;DHT22;3548;48.402;9.990;2022-09-03T17:08:26;21.40;99.90
7016;DHT22;3548;48.402;9.990;2022-09-03T17:13:57;21.70;99.90
7016;DHT22;3548;48.402;9.990;2022-09-03T17:16:57;21.70;99.90
7016;DHT22;3548;48.402;9.990;2022-09-03T17:19:52;21.70;99.90
7016;DHT22;3548;48.402;9.990;2022-09-03T17:22:44;21.60;99.90
7016;DHT22;3548;48.402;9.990;2022-09-03T17:25:34;21.50;99.90
7016;DHT22;3548;48.402;9.990;2022-09-03T17:31:00;21.20;99.90
7016;DHT22;3548;48.402;9.990;2022-09-03T17:36:36;21.00;99.90
7016;DHT22;3548;48.402;9.990;2022-09-03T17:42:27;20.80;99.90
7016;DHT22;3548;48.402;9.990;2022-09-03T17:44:58;20.60;99.90
7016;DHT22;3548;48.402;9.990;2022-09-03T17:47:52;20.60;99.90
7016;DHT22;3548;48.402;9.990;2022-09-03T17:50:34;21.30;99.90
7016;DHT22;3548;48.402;9.990;2022-09-03T17:53:19;20.40;99.90
7016;DHT22;3548;48.402;9.990;2022-09-03T17:58:47;20.20;99.90
7016;DHT22;3548;48.402;9.990;2022-09-03T18:01:25;20.00;99.90
7016;DHT22;3548;48.402;9.990;2022-09-03T18:10:00;19.90;99.90
7016;DHT22;3548;48.402;9.990;2022-09-03T18:12:42;19.80;99.90
7016;DHT22;3548;48.402;9.990;2022-09-03T18:15:32;19.80;99.90
7016;DHT22;3548;48.402;9.990;2022-09-03T18:18:08;19.70;99.90
7016;DHT22;3548;48.402;9.990;2022-09-03T18:20:44;19.60;99.90
7016;DHT22;3548;48.402;9.990;2022-09-03T18:23:51;19.60;99.90
7016;DHT22;3548;48.402;9.990;2022-09-03T18:26:43;19.60;99.90
7016;DHT22;3548;48.402;9.990;2022-09-03T18:32:47;19.40;99.90
7016;DHT22;3548;48.402;9.990;2022-09-03T18:35:31;19.30;99.90
7016;DHT22;3548;48.402;9.990;2022-09-03T18:38:37;19.20;99.90
7016;DHT22;3548;48.402;9.990;2022-09-03T18:45:03;19.10;99.90
7016;DHT22;3548;48.402;9.990;2022-09-03T18:48:01;19.00;99.90
7016;DHT22;3548;48.402;9.990;2022-09-03T18:51:06;19.00;99.90
7016;DHT22;3548;48.402;9.990;2022-09-03T18:57:22;18.90;99.90
7016;DHT22;3548;48.402;9.990;2022-09-03T19:06:12;18.70;99.90
7016;DHT22;3548;48.402;9.990;2022-09-03T19:12:40;18.50;99.90
7016;DHT22;3548;48.402;9.990;2022-09-03T19:15:41;18.40;99.90
7016;DHT22;3548;48.402;9.990;2022-09-03T19:19:10;18.30;99.90
7016;DHT22;3548;48.402;9.990;2022-09-03T19:22:07;18.30;99.90
7016;DHT22;3548;48.402;9.990;2022-09-03T19:24:58;18.20;99.90
7016;DHT22;3548;48.402;9.990;2022-09-03T19:28:16;18.10;99.90
7016;DHT22;3548;48.402;9.990;2022-09-03T19:34:13;17.90;99.90
7016;DHT22;3548;48.402;9.990;2022-09-03T19:37:10;17.80;99.90
7016;DHT22;3548;48.402;9.990;2022-09-03T19:40:01;17.70;99.90
7016;DHT22;3548;48.402;9.990;2022-09-03T19:43:07;17.60;99.90
7016;DHT22;3548;48.402;9.990;2022-09-03T19:49:13;17.50;99.90
7016;DHT22;3548;48.402;9.990;2022-09-03T19:52:06;17.50;99.90
7016;DHT22;3548;48.402;9.990;2022-09-03T19:54:54;17.50;99.90
7016;DHT22;3548;48.402;9.990;2022-09-03T19:57:41;17.50;99.90
7016;DHT22;3548;48.402;9.990;2022-09-03T20:00:27;17.50;99.90
7016;DHT22;3548;48.402;9.990;2022-09-03T20:03:13;17.50;99.90
7016;DHT22;3548;48.402;9.990;2022-09-03T20:06:00;17.40;99.90
7016;DHT22;3548;48.402;9.990;2022-09-03T20:08:46;17.30;99.90
7016;DHT22;3548;48.402;9.990;2022-09-03T20:11:31;17.20;99.90
7016;DHT22;3548;48.402;9.990;2022-09-03T20:13:58;17.20;99.90
7016;DHT22;3548;48.402;9.990;2022-09-03T20:20:02;17.10;99.90
7016;DHT22;3548;48.402;9.990;2022-09-03T20:30:49;16.80;99.90
7016;DHT22;3548;48.402;9.990;2022-09-03T20:33:30;16.70;99.90
7016;DHT22;3548;48.402;9.990;2022-09-03T20:47:35;16.50;99.90
7016;DHT22;3548;48.402;9.990;2022-09-03T20:55:49;16.40;99.90
7016;DHT22;3548;48.402;9.990;2022-09-03T20:58:34;16.40;99.90
7016;DHT22;3548;48.402;9.990;2022-09-03T21:01:04;16.30;99.90
7016;DHT22;3548;48.402;9.990;2022-09-03T21:03:43;16.30;99.90
7016;DHT22;3548;48.402;9.990;2022-09-03T21:06:37;16.30;99.90
7016;DHT22;3548;48.402;9.990;2022-09-03T21:09:30;16.30;99.90
7016;DHT22;3548;48.402;9.990;2022-09-03T21:14:38;16.30;99.90
7016;DHT22;3548;48.402;9.990;2022-09-03T21:19:41;16.20;99.90
7016;DHT22;3548;48.402;9.990;2022-09-03T21:22:20;16.20;99.90
7016;DHT22;3548;48.402;9.990;2022-09-03T21:25:01;16.10;99.90
7016;DHT22;3548;48.402;9.990;2022-09-03T21:27:36;16.10;99.90
7016;DHT22;3548;48.402;9.990;2022-09-03T21:30:12;16.10;99.90
7016;DHT22;3548;48.402;9.990;2022-09-03T21:35:18;16.10;99.90
7016;DHT22;3548;48.402;9.990;2022-09-03T21:37:57;16.10;99.90
7016;DHT22;3548;48.402;9.990;2022-09-03T21:40:26;16.10;99.90
7016;DHT22;3548;48.402;9.990;2022-09-03T21:45:36;16.10;99.90
7016;DHT22;3548;48.402;9.990;2022-09-03T21:48:16;16.00;99.90
7016;DHT22;3548;48.402;9.990;2022-09-03T21:50:51;16.00;99.90
7016;DHT22;3548;48.402;9.990;2022-09-03T21:53:27;15.90;99.90